Kodiak, AK

9:31 AM AKDT on August 27, 2016 (GMT -0800)
Kodiak College | | Change Station

Elev 154 ft 57.81 °N, 152.37 °W | Updated 7 minutes ago

Partly Cloudy
Partly Cloudy
66.6 °F
Feels Like 66.6 °F
N
3.7
Wind Variable Wind from North

Today
High -- | Low -- °F
--% Chance of Precip.
Yesterday
High -- | Low -- °F
Precip. -- in
Pressure 30.09 in
Visibility 10.0 miles
Clouds Few 25000 ft
Dew Point 55 °F
Humidity 66%
Rainfall 0.00 in
Snow Depth Not available.
7:00 AM 9:19 PM
Waning Crescent, 23% visible
METAR PADQ 271653Z 29014KT 10SM FEW250 18/10 A3009 RMK AO2 SLP190 T01780100
Pressure 30.09 in
Visibility 10.0 miles
Clouds Few 25000 ft
Dew Point 55 °F
Humidity 66%
Rainfall 0.00 in
Snow Depth Not available.
7:00 AM 9:19 PM
Waning Crescent, 23% visible
METAR PADQ 271653Z 29014KT 10SM FEW250 18/10 A3009 RMK AO2 SLP190 T01780100

10-Day Weather Forecast

Almanac

Astronomy

Aug. 27, 2016 Rise Set
Actual Time
Civil Twilight
Nautical Twilight
Astronomical Twilight
Moon
Length of Visible Light
Length of Day
Tomorrow will be .
, % of the Moon is Illuminated

Today's Extremes

State Highs State Lows

Community

WunderPhotos

Upload Photos

1,935,387 photos uploaded!

WunderBlog® & News

Nearby

Air Quality

  Air Quality AQ Index Pollutant
Not available.

Snow Depth

Station Depth Elevation

Earthquake Activity

City Distance Mag. Time & Date
Minimum magnitude displayed is 2.5.

Coastal Water Temperatures

Place Temperature

Stations

Nearby Weather Stations

Station Location Temp. Windchill Dew Point Humidity Wind Precip. Elev Updated Type
                   

Watches & Warnings

There are currently no watches in effect.